createdAt,value
2023-01-29T00:00:09.636Z,55.96
2023-01-29T00:02:41.420Z,55.98
2023-01-29T00:05:26.139Z,56.51
2023-01-29T00:07:52.825Z,56.80
2023-01-29T00:10:18.857Z,56.63
2023-01-29T00:12:44.845Z,56.61
2023-01-29T00:15:11.117Z,56.03
2023-01-29T00:17:37.094Z,56.18
2023-01-29T00:20:03.263Z,55.47
2023-01-29T00:22:30.217Z,55.47
2023-01-29T00:24:56.113Z,56.18
2023-01-29T00:27:22.007Z,56.84
2023-01-29T00:30:07.970Z,57.15
2023-01-29T00:32:35.095Z,56.91
2023-01-29T00:35:01.438Z,56.82
2023-01-29T00:37:27.341Z,56.72
2023-01-29T00:39:53.262Z,57.08
2023-01-29T00:42:37.817Z,56.97
2023-01-29T00:45:04.264Z,57.13
2023-01-29T00:47:30.273Z,56.92
2023-01-29T00:49:56.668Z,57.13
2023-01-29T00:52:23.495Z,57.26
2023-01-29T00:54:50.269Z,57.76
2023-01-29T00:57:16.249Z,57.79
2023-01-29T00:59:42.207Z,57.60
2023-01-29T01:02:26.862Z,57.93
2023-01-29T01:04:52.976Z,57.75
2023-01-29T01:07:19.320Z,57.94
2023-01-29T01:10:03.966Z,57.70
2023-01-29T01:12:31.173Z,57.93
2023-01-29T01:14:57.355Z,57.89
2023-01-29T01:17:23.477Z,57.69
2023-01-29T01:19:49.493Z,57.98
2023-01-29T01:22:16.274Z,57.87
2023-01-29T01:24:43.379Z,58.07
2023-01-29T01:27:09.513Z,58.05
2023-01-29T01:29:36.204Z,58.17
2023-01-29T01:32:02.248Z,58.13
2023-01-29T01:34:28.303Z,58.11
2023-01-29T01:36:58.164Z,58.25
2023-01-29T01:39:24.618Z,58.30
2023-01-29T01:41:55.233Z,58.26
2023-01-29T01:45:07.345Z,58.34
2023-01-29T01:47:42.533Z,58.36
2023-01-29T01:50:11.947Z,58.31
2023-01-29T01:52:44.401Z,58.31
2023-01-29T01:55:13.809Z,58.19
2023-01-29T01:57:42.823Z,58.14
2023-01-29T02:00:13.470Z,58.29
2023-01-29T02:03:01.326Z,58.14
2023-01-29T02:05:48.171Z,58.25
2023-01-29T02:08:45.427Z,58.23
2023-01-29T02:11:11.357Z,58.43
2023-01-29T02:13:37.853Z,58.55
2023-01-29T02:16:04.135Z,58.65
2023-01-29T02:18:37.321Z,58.79
2023-01-29T02:21:35.458Z,58.79
2023-01-29T02:24:30.402Z,58.71
2023-01-29T02:27:11.705Z,58.50
2023-01-29T02:29:55.910Z,58.55
2023-01-29T02:32:33.693Z,58.92
2023-01-29T02:35:24.680Z,58.99
2023-01-29T02:38:23.306Z,59.24
2023-01-29T02:40:58.136Z,59.29
2023-01-29T02:43:30.316Z,59.06
2023-01-29T02:46:11.600Z,59.13
2023-01-29T02:49:05.108Z,59.27
2023-01-29T02:51:41.456Z,59.24
2023-01-29T02:54:33.380Z,59.38
2023-01-29T02:57:07.647Z,59.76
2023-01-29T02:59:40.288Z,59.56
2023-01-29T03:02:12.007Z,59.77
2023-01-29T03:04:45.849Z,59.89
2023-01-29T03:07:40.667Z,59.95
2023-01-29T03:10:31.254Z,60.11
2023-01-29T03:13:02.995Z,60.20
2023-01-29T03:15:38.469Z,60.03
2023-01-29T03:18:21.997Z,60.12
2023-01-29T03:20:57.821Z,59.99
2023-01-29T03:23:47.995Z,60.07
2023-01-29T03:26:35.262Z,60.27
2023-01-29T03:29:22.557Z,60.38
2023-01-29T03:32:08.438Z,60.73
2023-01-29T03:34:43.051Z,60.71
2023-01-29T03:37:34.345Z,60.44
2023-01-29T03:40:04.623Z,59.89
2023-01-29T03:42:33.797Z,59.48
2023-01-29T03:45:13.892Z,59.58
2023-01-29T03:48:01.693Z,59.27
2023-01-29T03:50:31.984Z,59.25
2023-01-29T03:53:24.562Z,58.58
2023-01-29T03:56:12.478Z,58.40
2023-01-29T03:58:45.836Z,58.08
2023-01-29T04:01:23.715Z,57.84
2023-01-29T04:03:58.234Z,57.56
2023-01-29T04:06:29.478Z,57.55
2023-01-29T04:09:10.857Z,57.32
2023-01-29T04:11:42.681Z,57.61
2023-01-29T04:14:08.963Z,57.68
2023-01-29T04:16:39.359Z,57.82
2023-01-29T04:19:19.518Z,58.13
2023-01-29T04:21:50.231Z,58.00
2023-01-29T04:24:16.683Z,58.17
2023-01-29T04:27:24.582Z,58.32
2023-01-29T04:30:24.083Z,58.52
2023-01-29T04:33:26.096Z,58.54
2023-01-29T04:36:29.300Z,58.89
2023-01-29T04:39:15.195Z,58.55
2023-01-29T04:41:51.131Z,58.55
2023-01-29T04:44:32.069Z,58.51
2023-01-29T04:47:24.169Z,58.64
2023-01-29T04:50:08.833Z,58.79
2023-01-29T04:53:11.419Z,58.57
2023-01-29T04:55:44.508Z,59.34
2023-01-29T04:58:32.114Z,59.38
2023-01-29T05:01:00.381Z,59.87
2023-01-29T05:03:29.233Z,60.05
2023-01-29T05:05:57.401Z,60.44
2023-01-29T05:08:25.591Z,60.46
2023-01-29T05:10:54.766Z,60.69
2023-01-29T05:13:22.715Z,60.97
2023-01-29T05:15:54.526Z,60.89
2023-01-29T05:18:20.894Z,61.15
2023-01-29T05:20:47.885Z,61.11
2023-01-29T05:23:18.232Z,61.10
2023-01-29T05:25:45.696Z,61.15
2023-01-29T05:28:17.794Z,61.28
2023-01-29T05:30:46.738Z,61.46
2023-01-29T05:33:21.875Z,61.58
2023-01-29T05:35:49.090Z,61.58
2023-01-29T05:38:16.100Z,61.45
2023-01-29T05:40:42.553Z,61.40
2023-01-29T05:43:16.966Z,61.61
2023-01-29T05:45:50.839Z,61.50
2023-01-29T05:48:16.757Z,61.54
2023-01-29T05:50:42.704Z,61.53
2023-01-29T05:53:08.753Z,61.26
2023-01-29T05:55:34.762Z,61.23
2023-01-29T05:58:00.746Z,60.95
2023-01-29T06:00:26.644Z,60.99
2023-01-29T06:02:52.861Z,60.71
2023-01-29T06:05:19.083Z,60.73
2023-01-29T06:07:45.635Z,60.71
2023-01-29T06:10:14.496Z,60.66
2023-01-29T06:12:41.800Z,60.77
2023-01-29T06:15:08.252Z,60.75
2023-01-29T06:17:34.249Z,60.52
2023-01-29T06:20:00.185Z,60.43
2023-01-29T06:22:26.203Z,60.45
2023-01-29T06:24:52.114Z,60.41
2023-01-29T06:27:18.264Z,60.26
2023-01-29T06:29:44.225Z,60.23
2023-01-29T06:32:10.295Z,60.12
2023-01-29T06:34:39.129Z,60.54
2023-01-29T06:37:05.351Z,60.26
2023-01-29T06:39:31.231Z,60.37
2023-01-29T06:41:57.208Z,60.47
2023-01-29T06:44:23.136Z,60.66
2023-01-29T06:46:49.013Z,60.72
2023-01-29T06:49:15.040Z,60.76
2023-01-29T06:51:40.958Z,60.17
2023-01-29T06:54:08.484Z,60.22
2023-01-29T06:56:34.553Z,60.06
2023-01-29T06:59:00.516Z,59.78
2023-01-29T07:01:35.783Z,59.49
2023-01-29T07:04:03.148Z,59.61
2023-01-29T07:06:29.941Z,59.74
2023-01-29T07:08:56.176Z,59.72
2023-01-29T07:11:22.065Z,59.40
2023-01-29T07:13:47.949Z,59.65
2023-01-29T07:16:13.990Z,59.53
2023-01-29T07:18:39.898Z,59.55
2023-01-29T07:21:06.720Z,59.74
2023-01-29T07:23:34.833Z,59.44
2023-01-29T07:26:02.874Z,59.30
2023-01-29T07:28:29.195Z,59.34
2023-01-29T07:30:59.072Z,59.19
2023-01-29T07:33:25.779Z,59.23
2023-01-29T07:35:52.455Z,58.99
2023-01-29T07:38:18.823Z,59.09
2023-01-29T07:40:45.072Z,58.76
2023-01-29T07:43:11.147Z,58.96
2023-01-29T07:45:39.061Z,59.04
2023-01-29T07:48:07.245Z,59.16
2023-01-29T07:50:34.536Z,58.86
2023-01-29T07:53:00.849Z,58.73
2023-01-29T07:55:27.243Z,58.68
2023-01-29T07:57:57.693Z,58.53
2023-01-29T08:00:24.135Z,58.15
2023-01-29T08:02:50.193Z,58.33
2023-01-29T08:05:16.377Z,57.85
2023-01-29T08:07:42.267Z,57.39
2023-01-29T08:10:08.917Z,57.44
2023-01-29T08:12:34.865Z,57.33
2023-01-29T08:15:00.876Z,56.73
2023-01-29T08:17:26.765Z,56.43
2023-01-29T08:19:52.812Z,56.14
2023-01-29T08:22:18.747Z,55.82
2023-01-29T08:24:53.871Z,55.91
2023-01-29T08:27:26.057Z,55.19
2023-01-29T08:29:52.180Z,54.47
2023-01-29T08:32:18.112Z,54.33
2023-01-29T08:34:44.122Z,54.18
2023-01-29T08:37:10.183Z,53.53
2023-01-29T08:39:36.149Z,52.90
2023-01-29T08:42:02.110Z,52.91
2023-01-29T08:44:28.817Z,52.84
2023-01-29T08:46:54.800Z,52.43
2023-01-29T08:49:20.722Z,52.15
2023-01-29T08:51:46.837Z,52.89
2023-01-29T08:54:12.766Z,53.79
2023-01-29T08:56:38.653Z,53.78
2023-01-29T08:59:04.610Z,52.71
2023-01-29T09:01:30.563Z,52.07
2023-01-29T09:03:56.554Z,51.91
2023-01-29T09:06:22.541Z,51.35
2023-01-29T09:08:49.133Z,51.46
2023-01-29T09:11:15.076Z,51.19
2023-01-29T09:13:41.046Z,50.73
2023-01-29T09:16:07.359Z,50.47
2023-01-29T09:18:33.290Z,51.00
2023-01-29T09:20:59.328Z,50.47
2023-01-29T09:23:25.330Z,50.76
2023-01-29T09:25:51.251Z,50.95
2023-01-29T09:28:17.263Z,50.87
2023-01-29T09:30:44.292Z,50.49
2023-01-29T09:33:10.310Z,50.86
2023-01-29T09:35:36.770Z,50.55
2023-01-29T09:38:02.684Z,49.99
2023-01-29T09:40:51.132Z,49.86
2023-01-29T09:43:32.207Z,49.69
2023-01-29T09:46:03.893Z,48.97
2023-01-29T09:48:33.553Z,48.93
2023-01-29T09:51:05.822Z,48.84
2023-01-29T09:53:45.679Z,48.41
2023-01-29T09:56:17.233Z,48.77
2023-01-29T09:58:43.809Z,48.29
2023-01-29T10:01:23.586Z,48.16
2023-01-29T10:04:31.700Z,48.22
2023-01-29T10:07:22.152Z,47.89
2023-01-29T10:09:56.879Z,47.47
2023-01-29T10:12:45.035Z,47.63
2023-01-29T10:15:35.899Z,47.87
2023-01-29T10:18:04.848Z,47.84
2023-01-29T10:21:04.149Z,48.04
2023-01-29T10:23:34.741Z,48.02
2023-01-29T10:26:01.063Z,48.32
2023-01-29T10:28:33.384Z,47.65
2023-01-29T10:31:05.376Z,47.54
2023-01-29T10:34:02.385Z,47.73
2023-01-29T10:36:45.135Z,47.31
2023-01-29T10:39:25.709Z,47.30
2023-01-29T10:42:19.369Z,47.67
2023-01-29T10:45:18.332Z,47.33
2023-01-29T10:48:04.117Z,47.27
2023-01-29T10:50:57.035Z,46.72
2023-01-29T10:53:50.569Z,46.54
2023-01-29T10:56:41.667Z,46.41
2023-01-29T10:59:27.008Z,46.50
2023-01-29T11:01:58.543Z,46.14
2023-01-29T11:04:27.520Z,46.20
2023-01-29T11:06:53.797Z,46.34
2023-01-29T11:09:34.638Z,45.72
2023-01-29T11:12:02.905Z,45.61
2023-01-29T11:14:45.943Z,45.92
2023-01-29T11:17:17.142Z,45.41
2023-01-29T11:19:46.040Z,45.37
2023-01-29T11:22:52.428Z,45.80
2023-01-29T11:25:19.738Z,46.10
2023-01-29T11:27:49.749Z,45.81
2023-01-29T11:30:22.766Z,45.45
2023-01-29T11:33:09.164Z,45.11
2023-01-29T11:35:36.001Z,44.87
2023-01-29T11:38:24.537Z,45.35
2023-01-29T11:40:51.782Z,44.38
2023-01-29T11:43:20.741Z,44.07
2023-01-29T11:45:50.300Z,43.61
2023-01-29T11:48:19.855Z,43.65
2023-01-29T11:51:20.962Z,43.78
2023-01-29T11:53:53.198Z,44.30
2023-01-29T11:56:26.552Z,43.84
2023-01-29T11:58:55.144Z,43.77
2023-01-29T12:01:37.769Z,44.34
2023-01-29T12:04:18.411Z,43.83
2023-01-29T12:06:48.547Z,43.42
2023-01-29T12:09:19.018Z,43.40
2023-01-29T12:11:45.072Z,43.01
2023-01-29T12:14:40.320Z,43.42
2023-01-29T12:17:23.414Z,42.98
2023-01-29T12:19:55.942Z,42.95
2023-01-29T12:22:37.812Z,42.81
2023-01-29T12:25:45.755Z,42.89
2023-01-29T12:28:37.091Z,43.21
2023-01-29T12:31:12.494Z,43.53
2023-01-29T12:34:02.669Z,43.01
2023-01-29T12:36:37.858Z,42.71
2023-01-29T12:39:04.440Z,42.08
2023-01-29T12:41:38.513Z,42.27
2023-01-29T12:44:17.243Z,42.12
2023-01-29T12:46:49.934Z,42.30
2023-01-29T12:49:21.606Z,42.13
2023-01-29T12:52:18.311Z,42.40
2023-01-29T12:54:53.471Z,42.59
2023-01-29T12:57:37.677Z,42.29
2023-01-29T13:00:13.725Z,42.70
2023-01-29T13:03:06.093Z,43.01
2023-01-29T13:05:45.687Z,42.89
2023-01-29T13:08:18.405Z,43.26
2023-01-29T13:10:49.977Z,43.17
2023-01-29T13:13:32.282Z,43.19
2023-01-29T13:16:00.527Z,42.63
2023-01-29T13:18:43.541Z,42.94
2023-01-29T13:21:18.654Z,42.70
2023-01-29T13:23:49.155Z,42.71
2023-01-29T13:26:20.719Z,42.88
2023-01-29T13:28:48.721Z,42.78
2023-01-29T13:31:26.843Z,42.88
2023-01-29T13:34:01.909Z,43.37
2023-01-29T13:36:30.403Z,42.89
2023-01-29T13:39:08.244Z,42.88
2023-01-29T13:41:39.272Z,42.08
2023-01-29T13:44:17.312Z,42.42
2023-01-29T13:47:08.003Z,42.90
2023-01-29T13:49:51.971Z,43.34
2023-01-29T13:52:42.348Z,43.04
2023-01-29T13:55:14.446Z,43.40
2023-01-29T13:57:43.405Z,43.61
2023-01-29T14:00:21.724Z,43.85
2023-01-29T14:03:11.072Z,43.55
2023-01-29T14:05:38.373Z,43.72
2023-01-29T14:08:13.555Z,44.03
2023-01-29T14:10:41.182Z,44.65
2023-01-29T14:13:17.487Z,45.09
2023-01-29T14:16:03.412Z,44.83
2023-01-29T14:18:32.692Z,45.28
2023-01-29T14:21:03.026Z,45.06
2023-01-29T14:23:45.436Z,45.45
2023-01-29T14:26:37.772Z,45.81
2023-01-29T14:29:25.647Z,45.55
2023-01-29T14:32:06.045Z,45.65
2023-01-29T14:34:48.092Z,45.73
2023-01-29T14:37:14.157Z,45.74
2023-01-29T14:39:45.249Z,46.07
2023-01-29T14:42:29.205Z,45.80
2023-01-29T14:44:57.847Z,45.67
2023-01-29T14:47:26.784Z,46.18
2023-01-29T14:49:58.523Z,45.80
2023-01-29T14:52:46.532Z,46.28
2023-01-29T14:55:29.363Z,45.61
2023-01-29T14:57:57.555Z,45.31
2023-01-29T15:00:30.757Z,44.85
2023-01-29T15:03:01.885Z,44.96
2023-01-29T15:05:32.180Z,44.73
2023-01-29T15:08:05.721Z,44.03
2023-01-29T15:10:43.474Z,43.69
2023-01-29T15:13:32.142Z,43.19
2023-01-29T15:16:12.247Z,42.63
2023-01-29T15:18:42.907Z,42.39
2023-01-29T15:21:14.201Z,42.19
2023-01-29T15:23:40.529Z,42.69
2023-01-29T15:26:10.971Z,43.06
2023-01-29T15:28:38.717Z,43.13
2023-01-29T15:31:11.281Z,43.46
2023-01-29T15:33:40.548Z,43.56
2023-01-29T15:36:08.400Z,43.64
2023-01-29T15:38:35.320Z,43.81
2023-01-29T15:41:03.786Z,44.04
2023-01-29T15:43:34.671Z,44.24
2023-01-29T15:46:06.905Z,44.46
2023-01-29T15:48:39.992Z,45.08
2023-01-29T15:51:07.871Z,45.23
2023-01-29T15:54:01.653Z,45.39
2023-01-29T15:56:28.933Z,45.91
2023-01-29T15:58:57.432Z,46.54
2023-01-29T16:01:26.358Z,47.04
2023-01-29T16:03:53.406Z,46.86
2023-01-29T16:06:20.779Z,47.44
2023-01-29T16:08:50.741Z,48.65
2023-01-29T16:11:18.928Z,48.96
2023-01-29T16:13:48.412Z,48.82
2023-01-29T16:16:14.349Z,49.60
2023-01-29T16:18:57.960Z,50.23
2023-01-29T16:21:39.222Z,50.49
2023-01-29T16:24:12.768Z,51.01
2023-01-29T16:26:44.097Z,51.31
2023-01-29T16:29:13.302Z,51.88
2023-01-29T16:31:41.187Z,52.18
2023-01-29T16:34:34.748Z,52.50
2023-01-29T16:37:04.847Z,53.09
2023-01-29T16:39:35.366Z,53.55
2023-01-29T16:42:11.638Z,53.51
2023-01-29T16:44:39.830Z,54.14
2023-01-29T16:47:29.044Z,54.46
2023-01-29T16:49:57.885Z,55.12
2023-01-29T16:52:27.567Z,55.29
2023-01-29T16:55:00.409Z,55.67
2023-01-29T16:57:31.925Z,55.76
2023-01-29T17:00:01.348Z,56.07
2023-01-29T17:02:37.887Z,56.70
2023-01-29T17:05:10.263Z,56.99
2023-01-29T17:07:37.310Z,56.97
2023-01-29T17:10:05.958Z,57.23
2023-01-29T17:12:33.370Z,57.20
2023-01-29T17:15:24.980Z,57.17
2023-01-29T17:17:51.145Z,57.66
2023-01-29T17:20:17.398Z,57.58
2023-01-29T17:22:44.529Z,57.61
2023-01-29T17:25:14.894Z,58.04
2023-01-29T17:27:43.696Z,58.05
2023-01-29T17:30:14.928Z,57.98
2023-01-29T17:32:44.552Z,58.09
2023-01-29T17:35:14.508Z,58.21
2023-01-29T17:37:40.980Z,58.50
2023-01-29T17:40:34.437Z,58.53
2023-01-29T17:43:00.414Z,58.64
2023-01-29T17:45:26.519Z,58.77
2023-01-29T17:47:52.448Z,59.17
2023-01-29T17:50:23.249Z,58.90
2023-01-29T17:52:49.688Z,59.12
2023-01-29T17:55:16.857Z,59.08
2023-01-29T17:57:42.986Z,59.43
2023-01-29T18:00:16.663Z,59.90
2023-01-29T18:02:42.900Z,59.95
2023-01-29T18:05:10.303Z,60.06
2023-01-29T18:07:37.947Z,60.38
2023-01-29T18:10:04.653Z,60.53
2023-01-29T18:12:30.543Z,60.36
2023-01-29T18:14:56.509Z,60.18
2023-01-29T18:17:22.935Z,60.57
2023-01-29T18:19:48.864Z,60.48
2023-01-29T18:22:15.390Z,60.47
2023-01-29T18:24:41.318Z,60.53
2023-01-29T18:27:08.180Z,61.01
2023-01-29T18:29:34.247Z,60.91
2023-01-29T18:32:00.235Z,61.21
2023-01-29T18:34:26.213Z,61.41
2023-01-29T18:36:52.158Z,61.26
2023-01-29T18:39:18.027Z,61.67
2023-01-29T18:41:44.046Z,61.71
2023-01-29T18:44:10.531Z,61.54
2023-01-29T18:46:36.490Z,61.37
2023-01-29T18:49:02.450Z,61.94
2023-01-29T18:51:28.493Z,62.17
2023-01-29T18:53:54.392Z,62.15
2023-01-29T18:56:20.338Z,62.23
2023-01-29T18:58:52.260Z,62.11
2023-01-29T19:01:22.209Z,62.02
2023-01-29T19:03:48.135Z,62.07
2023-01-29T19:06:14.094Z,61.80
2023-01-29T19:08:40.428Z,61.77
2023-01-29T19:11:08.328Z,61.80
2023-01-29T19:13:36.318Z,61.97
2023-01-29T19:16:06.381Z,62.16
2023-01-29T19:18:33.012Z,62.02
2023-01-29T19:20:58.927Z,62.06
2023-01-29T19:23:24.822Z,62.31
2023-01-29T19:25:50.832Z,62.28
2023-01-29T19:28:16.754Z,62.32
2023-01-29T19:30:42.819Z,62.34
2023-01-29T19:33:10.019Z,61.96
2023-01-29T19:35:36.007Z,62.30
2023-01-29T19:38:01.974Z,62.40
2023-01-29T19:40:27.987Z,62.50
2023-01-29T19:42:55.287Z,61.97
2023-01-29T19:45:38.583Z,62.17
2023-01-29T19:48:11.229Z,61.58
2023-01-29T19:50:37.470Z,61.69
2023-01-29T19:53:03.526Z,61.43
2023-01-29T19:55:29.565Z,61.35
2023-01-29T19:57:57.450Z,61.34
2023-01-29T20:00:23.814Z,60.97
2023-01-29T20:02:49.858Z,60.82
2023-01-29T20:05:17.782Z,60.87
2023-01-29T20:07:44.345Z,61.39
2023-01-29T20:10:16.435Z,61.15
2023-01-29T20:12:45.817Z,60.72
2023-01-29T20:15:13.395Z,60.50
2023-01-29T20:17:39.364Z,60.85
2023-01-29T20:20:06.150Z,60.68
2023-01-29T20:22:32.093Z,60.89
2023-01-29T20:24:58.093Z,60.83
2023-01-29T20:27:24.184Z,60.89
2023-01-29T20:29:51.813Z,60.87
2023-01-29T20:32:18.007Z,61.05
2023-01-29T20:34:44.831Z,60.95
2023-01-29T20:37:10.772Z,61.30
2023-01-29T20:39:36.797Z,61.29
2023-01-29T20:42:02.988Z,61.52
2023-01-29T20:44:28.921Z,61.57
2023-01-29T20:46:55.598Z,61.79
2023-01-29T20:49:21.541Z,61.52
2023-01-29T20:51:47.473Z,61.65
2023-01-29T20:54:13.482Z,61.61
2023-01-29T20:56:44.258Z,61.52
2023-01-29T20:59:11.502Z,61.76
2023-01-29T21:01:37.761Z,61.75
2023-01-29T21:04:03.814Z,61.85
2023-01-29T21:06:30.443Z,62.14
2023-01-29T21:08:56.414Z,61.97
2023-01-29T21:11:22.518Z,62.11
2023-01-29T21:13:50.233Z,61.73
2023-01-29T21:16:16.308Z,61.88
2023-01-29T21:18:42.307Z,61.94
2023-01-29T21:21:08.351Z,61.90
2023-01-29T21:23:34.305Z,62.34
2023-01-29T21:26:05.084Z,62.12
2023-01-29T21:28:32.652Z,62.12
2023-01-29T21:31:17.006Z,62.51
2023-01-29T21:33:43.354Z,62.32
2023-01-29T21:36:10.057Z,62.31
2023-01-29T21:38:36.233Z,62.04
2023-01-29T21:41:05.218Z,61.98
2023-01-29T21:43:31.120Z,62.05
2023-01-29T21:45:59.803Z,62.29
2023-01-29T21:48:26.107Z,62.15
2023-01-29T21:50:52.078Z,62.12
2023-01-29T21:53:18.684Z,62.30
2023-01-29T21:55:45.568Z,62.14
2023-01-29T21:58:13.476Z,62.17
2023-01-29T22:00:40.402Z,62.34
2023-01-29T22:03:06.412Z,61.99
2023-01-29T22:05:33.079Z,62.26
2023-01-29T22:07:59.043Z,62.36
2023-01-29T22:10:25.252Z,62.23
2023-01-29T22:12:51.500Z,62.34
2023-01-29T22:15:17.500Z,62.43
2023-01-29T22:17:43.481Z,62.64
2023-01-29T22:20:11.630Z,62.52
2023-01-29T22:22:37.632Z,62.46
2023-01-29T22:25:04.668Z,62.44
2023-01-29T22:27:32.651Z,62.57
2023-01-29T22:29:59.209Z,62.63
2023-01-29T22:32:25.212Z,62.69
2023-01-29T22:34:51.254Z,62.54
2023-01-29T22:37:17.454Z,62.81
2023-01-29T22:39:43.385Z,63.21
2023-01-29T22:42:09.444Z,63.22
2023-01-29T22:44:35.475Z,63.14
2023-01-29T22:47:01.548Z,62.94
2023-01-29T22:49:29.519Z,62.84
2023-01-29T22:52:10.777Z,62.91
2023-01-29T22:54:41.194Z,63.04
2023-01-29T22:57:10.297Z,63.00
2023-01-29T22:59:36.761Z,63.03
2023-01-29T23:02:03.632Z,62.99
2023-01-29T23:04:29.625Z,63.21
2023-01-29T23:06:55.672Z,63.08
2023-01-29T23:09:21.707Z,62.89
2023-01-29T23:11:47.610Z,62.84
2023-01-29T23:14:13.554Z,62.63
2023-01-29T23:16:39.416Z,62.25
2023-01-29T23:19:05.342Z,62.03
2023-01-29T23:21:31.379Z,62.13
2023-01-29T23:24:00.628Z,61.98
2023-01-29T23:26:46.901Z,61.98
2023-01-29T23:29:13.628Z,61.77
2023-01-29T23:31:39.534Z,61.81
2023-01-29T23:34:05.534Z,61.68
2023-01-29T23:36:31.639Z,61.47
2023-01-29T23:38:57.550Z,61.50
2023-01-29T23:41:23.713Z,61.38
2023-01-29T23:43:49.662Z,61.37
2023-01-29T23:46:15.689Z,61.72
2023-01-29T23:48:41.621Z,61.81
2023-01-29T23:51:07.578Z,62.33
2023-01-29T23:53:33.597Z,62.43
2023-01-29T23:56:02.835Z,62.14
2023-01-29T23:58:30.530Z,61.92
